sensor_id;sensor_type;location;lat;lon;timestamp;temperature;humidity
64620;DHT22;51029;51.058;13.826;2023-05-10T00:01:56;12.60;94.30
64620;DHT22;51029;51.058;13.826;2023-05-10T00:04:21;12.60;94.40
64620;DHT22;51029;51.058;13.826;2023-05-10T00:06:47;12.60;94.30
64620;DHT22;51029;51.058;13.826;2023-05-10T00:09:13;12.70;94.30
64620;DHT22;51029;51.058;13.826;2023-05-10T00:11:38;12.70;94.30
64620;DHT22;51029;51.058;13.826;2023-05-10T00:14:04;12.60;94.50
64620;DHT22;51029;51.058;13.826;2023-05-10T00:16:30;12.50;94.70
64620;DHT22;51029;51.058;13.826;2023-05-10T00:18:55;12.50;94.70
64620;DHT22;51029;51.058;13.826;2023-05-10T00:21:21;12.40;95.00
64620;DHT22;51029;51.058;13.826;2023-05-10T00:23:46;12.50;94.90
64620;DHT22;51029;51.058;13.826;2023-05-10T00:26:12;12.40;95.00
64620;DHT22;51029;51.058;13.826;2023-05-10T00:28:37;12.30;95.30
64620;DHT22;51029;51.058;13.826;2023-05-10T00:31:03;12.40;95.00
64620;DHT22;51029;51.058;13.826;2023-05-10T00:33:28;12.30;95.40
64620;DHT22;51029;51.058;13.826;2023-05-10T00:35:54;12.30;95.80
64620;DHT22;51029;51.058;13.826;2023-05-10T00:38:19;12.30;95.20
64620;DHT22;51029;51.058;13.826;2023-05-10T00:40:45;12.20;95.40
64620;DHT22;51029;51.058;13.826;2023-05-10T00:43:10;12.20;95.50
64620;DHT22;51029;51.058;13.826;2023-05-10T00:45:36;12.10;95.80
64620;DHT22;51029;51.058;13.826;2023-05-10T00:48:03;12.00;96.10
64620;DHT22;51029;51.058;13.826;2023-05-10T00:50:29;12.10;96.30
64620;DHT22;51029;51.058;13.826;2023-05-10T00:52:56;12.10;96.20
64620;DHT22;51029;51.058;13.826;2023-05-10T00:55:22;12.00;96.60
64620;DHT22;51029;51.058;13.826;2023-05-10T00:57:48;12.00;96.80
64620;DHT22;51029;51.058;13.826;2023-05-10T01:00:14;12.00;96.90
64620;DHT22;51029;51.058;13.826;2023-05-10T01:02:44;11.90;96.50
64620;DHT22;51029;51.058;13.826;2023-05-10T01:05:10;11.80;97.20
64620;DHT22;51029;51.058;13.826;2023-05-10T01:07:35;11.90;97.40
64620;DHT22;51029;51.058;13.826;2023-05-10T01:10:01;11.90;97.40
64620;DHT22;51029;51.058;13.826;2023-05-10T01:12:26;11.90;97.20
64620;DHT22;51029;51.058;13.826;2023-05-10T01:14:52;11.80;97.20
64620;DHT22;51029;51.058;13.826;2023-05-10T01:17:19;11.80;97.90
64620;DHT22;51029;51.058;13.826;2023-05-10T01:19:44;11.80;97.70
64620;DHT22;51029;51.058;13.826;2023-05-10T01:22:34;11.80;98.10
64620;DHT22;51029;51.058;13.826;2023-05-10T01:31:03;11.70;98.70
64620;DHT22;51029;51.058;13.826;2023-05-10T01:33:52;11.70;98.50
64620;DHT22;51029;51.058;13.826;2023-05-10T01:36:32;11.50;99.00
64620;DHT22;51029;51.058;13.826;2023-05-10T01:39:25;11.50;99.50
64620;DHT22;51029;51.058;13.826;2023-05-10T01:42:11;11.50;99.50
64620;DHT22;51029;51.058;13.826;2023-05-10T01:44:42;11.50;99.60
64620;DHT22;51029;51.058;13.826;2023-05-10T01:50:17;11.40;99.90
64620;DHT22;51029;51.058;13.826;2023-05-10T01:52:47;11.20;99.90
64620;DHT22;51029;51.058;13.826;2023-05-10T01:55:16;11.30;99.90
64620;DHT22;51029;51.058;13.826;2023-05-10T01:57:44;11.30;99.90
64620;DHT22;51029;51.058;13.826;2023-05-10T02:00:12;11.30;99.90
64620;DHT22;51029;51.058;13.826;2023-05-10T02:02:40;11.30;99.90
64620;DHT22;51029;51.058;13.826;2023-05-10T02:05:08;11.20;99.90
64620;DHT22;51029;51.058;13.826;2023-05-10T02:07:36;11.20;99.90
64620;DHT22;51029;51.058;13.826;2023-05-10T02:10:02;11.20;99.90
64620;DHT22;51029;51.058;13.826;2023-05-10T02:12:30;11.20;99.90
64620;DHT22;51029;51.058;13.826;2023-05-10T02:14:57;11.20;99.90
64620;DHT22;51029;51.058;13.826;2023-05-10T02:17:25;11.20;99.90
64620;DHT22;51029;51.058;13.826;2023-05-10T02:19:51;11.10;99.90
64620;DHT22;51029;51.058;13.826;2023-05-10T02:22:18;11.20;99.90
64620;DHT22;51029;51.058;13.826;2023-05-10T02:24:44;11.10;99.90
64620;DHT22;51029;51.058;13.826;2023-05-10T02:27:11;11.10;99.90
64620;DHT22;51029;51.058;13.826;2023-05-10T02:29:38;11.00;99.90
64620;DHT22;51029;51.058;13.826;2023-05-10T02:32:05;11.00;99.90
64620;DHT22;51029;51.058;13.826;2023-05-10T02:34:31;10.90;99.90
64620;DHT22;51029;51.058;13.826;2023-05-10T02:36:58;11.00;99.90
64620;DHT22;51029;51.058;13.826;2023-05-10T02:39:25;10.90;99.90
64620;DHT22;51029;51.058;13.826;2023-05-10T02:41:53;10.80;99.90
64620;DHT22;51029;51.058;13.826;2023-05-10T02:44:21;10.80;99.90
64620;DHT22;51029;51.058;13.826;2023-05-10T02:46:47;10.90;99.90
64620;DHT22;51029;51.058;13.826;2023-05-10T02:49:13;10.80;99.90
64620;DHT22;51029;51.058;13.826;2023-05-10T02:51:50;10.70;99.90
64620;DHT22;51029;51.058;13.826;2023-05-10T02:54:24;10.70;99.90
64620;DHT22;51029;51.058;13.826;2023-05-10T02:56:57;10.80;99.90
64620;DHT22;51029;51.058;13.826;2023-05-10T02:59:22;10.70;99.90
64620;DHT22;51029;51.058;13.826;2023-05-10T03:01:48;10.80;99.90
64620;DHT22;51029;51.058;13.826;2023-05-10T03:04:14;10.80;99.90
64620;DHT22;51029;51.058;13.826;2023-05-10T03:06:41;10.70;99.90
64620;DHT22;51029;51.058;13.826;2023-05-10T03:09:07;10.80;99.90
64620;DHT22;51029;51.058;13.826;2023-05-10T03:12:00;10.60;99.90
64620;DHT22;51029;51.058;13.826;2023-05-10T03:14:49;10.60;99.90
64620;DHT22;51029;51.058;13.826;2023-05-10T03:21:05;10.50;99.90
64620;DHT22;51029;51.058;13.826;2023-05-10T03:25:53;10.60;99.90
64620;DHT22;51029;51.058;13.826;2023-05-10T03:28:21;10.50;99.90
64620;DHT22;51029;51.058;13.826;2023-05-10T03:30:47;10.60;99.90
64620;DHT22;51029;51.058;13.826;2023-05-10T03:33:12;10.70;99.90
64620;DHT22;51029;51.058;13.826;2023-05-10T03:35:39;10.70;99.90
64620;DHT22;51029;51.058;13.826;2023-05-10T03:38:05;10.70;99.90
64620;DHT22;51029;51.058;13.826;2023-05-10T03:40:30;10.60;99.90
64620;DHT22;51029;51.058;13.826;2023-05-10T03:43:00;10.70;99.90
64620;DHT22;51029;51.058;13.826;2023-05-10T03:45:26;10.60;99.90
64620;DHT22;51029;51.058;13.826;2023-05-10T03:47:52;10.70;99.90
64620;DHT22;51029;51.058;13.826;2023-05-10T03:50:17;10.70;99.90
64620;DHT22;51029;51.058;13.826;2023-05-10T03:52:44;10.60;99.90
64620;DHT22;51029;51.058;13.826;2023-05-10T03:55:10;10.70;99.90
64620;DHT22;51029;51.058;13.826;2023-05-10T03:57:35;10.70;99.90
64620;DHT22;51029;51.058;13.826;2023-05-10T04:00:02;10.80;99.90
64620;DHT22;51029;51.058;13.826;2023-05-10T04:02:28;10.80;99.90
64620;DHT22;51029;51.058;13.826;2023-05-10T04:04:54;10.80;99.90
64620;DHT22;51029;51.058;13.826;2023-05-10T04:07:19;10.90;99.90
64620;DHT22;51029;51.058;13.826;2023-05-10T04:09:45;10.90;99.90
64620;DHT22;51029;51.058;13.826;2023-05-10T04:12:10;10.90;99.90
64620;DHT22;51029;51.058;13.826;2023-05-10T04:14:36;11.00;99.90
64620;DHT22;51029;51.058;13.826;2023-05-10T04:17:02;11.00;99.90
64620;DHT22;51029;51.058;13.826;2023-05-10T04:19:31;11.00;99.90
64620;DHT22;51029;51.058;13.826;2023-05-10T04:21:57;11.10;99.90
64620;DHT22;51029;51.058;13.826;2023-05-10T04:24:23;11.10;99.90
64620;DHT22;51029;51.058;13.826;2023-05-10T04:26:48;11.20;99.90
64620;DHT22;51029;51.058;13.826;2023-05-10T04:29:14;11.20;99.90
64620;DHT22;51029;51.058;13.826;2023-05-10T04:31:39;11.30;99.90
64620;DHT22;51029;51.058;13.826;2023-05-10T04:34:05;11.40;99.90
64620;DHT22;51029;51.058;13.826;2023-05-10T04:36:30;11.40;99.90
64620;DHT22;51029;51.058;13.826;2023-05-10T04:38:58;11.50;99.90
64620;DHT22;51029;51.058;13.826;2023-05-10T04:41:23;11.50;99.90
64620;DHT22;51029;51.058;13.826;2023-05-10T04:43:50;11.60;99.90
64620;DHT22;51029;51.058;13.826;2023-05-10T04:46:15;11.70;99.90
64620;DHT22;51029;51.058;13.826;2023-05-10T04:48:41;11.70;99.90
64620;DHT22;51029;51.058;13.826;2023-05-10T04:51:06;11.80;99.90
64620;DHT22;51029;51.058;13.826;2023-05-10T04:53:32;11.80;99.90
64620;DHT22;51029;51.058;13.826;2023-05-10T04:55:58;11.90;99.90
64620;DHT22;51029;51.058;13.826;2023-05-10T04:58:23;11.90;99.90
64620;DHT22;51029;51.058;13.826;2023-05-10T05:00:49;11.90;99.90
64620;DHT22;51029;51.058;13.826;2023-05-10T05:03:14;12.00;99.90
64620;DHT22;51029;51.058;13.826;2023-05-10T05:05:40;12.00;99.90
64620;DHT22;51029;51.058;13.826;2023-05-10T05:08:05;12.10;99.90
64620;DHT22;51029;51.058;13.826;2023-05-10T05:10:31;12.20;99.90
64620;DHT22;51029;51.058;13.826;2023-05-10T05:12:57;12.30;99.90
64620;DHT22;51029;51.058;13.826;2023-05-10T05:15:22;12.30;99.90
64620;DHT22;51029;51.058;13.826;2023-05-10T05:17:48;12.40;99.90
64620;DHT22;51029;51.058;13.826;2023-05-10T05:20:14;12.40;99.90
64620;DHT22;51029;51.058;13.826;2023-05-10T05:22:39;12.50;99.90
64620;DHT22;51029;51.058;13.826;2023-05-10T05:25:05;12.50;99.90
64620;DHT22;51029;51.058;13.826;2023-05-10T05:27:31;12.60;99.90
64620;DHT22;51029;51.058;13.826;2023-05-10T05:29:57;12.70;99.90
64620;DHT22;51029;51.058;13.826;2023-05-10T05:32:24;12.80;99.90
64620;DHT22;51029;51.058;13.826;2023-05-10T05:34:50;12.90;99.90
64620;DHT22;51029;51.058;13.826;2023-05-10T05:37:17;13.00;99.90
64620;DHT22;51029;51.058;13.826;2023-05-10T05:39:44;13.00;99.90
64620;DHT22;51029;51.058;13.826;2023-05-10T05:42:10;13.10;99.90
64620;DHT22;51029;51.058;13.826;2023-05-10T05:44:35;13.20;99.90
64620;DHT22;51029;51.058;13.826;2023-05-10T05:47:01;13.30;99.90
64620;DHT22;51029;51.058;13.826;2023-05-10T05:49:27;13.30;99.90
64620;DHT22;51029;51.058;13.826;2023-05-10T05:51:52;13.40;99.90
64620;DHT22;51029;51.058;13.826;2023-05-10T05:54:18;13.50;99.90
64620;DHT22;51029;51.058;13.826;2023-05-10T05:56:43;13.60;99.90
64620;DHT22;51029;51.058;13.826;2023-05-10T05:59:10;13.60;99.90
64620;DHT22;51029;51.058;13.826;2023-05-10T06:01:35;13.60;99.90
64620;DHT22;51029;51.058;13.826;2023-05-10T06:04:01;13.70;99.90
64620;DHT22;51029;51.058;13.826;2023-05-10T06:06:26;13.80;99.90
64620;DHT22;51029;51.058;13.826;2023-05-10T06:08:53;13.90;99.90
64620;DHT22;51029;51.058;13.826;2023-05-10T06:11:18;13.90;99.90
64620;DHT22;51029;51.058;13.826;2023-05-10T06:13:43;13.90;99.90
64620;DHT22;51029;51.058;13.826;2023-05-10T06:16:09;14.00;99.90
64620;DHT22;51029;51.058;13.826;2023-05-10T06:18:35;14.10;99.90
64620;DHT22;51029;51.058;13.826;2023-05-10T06:21:01;14.20;99.90
64620;DHT22;51029;51.058;13.826;2023-05-10T06:23:26;14.20;99.90
64620;DHT22;51029;51.058;13.826;2023-05-10T06:25:52;14.40;99.90
64620;DHT22;51029;51.058;13.826;2023-05-10T06:28:18;14.40;99.90
64620;DHT22;51029;51.058;13.826;2023-05-10T06:30:43;14.60;99.90
64620;DHT22;51029;51.058;13.826;2023-05-10T06:33:09;14.60;99.90
64620;DHT22;51029;51.058;13.826;2023-05-10T06:35:35;14.60;99.90
64620;DHT22;51029;51.058;13.826;2023-05-10T06:38:02;14.80;99.90
64620;DHT22;51029;51.058;13.826;2023-05-10T06:40:27;14.90;99.90
64620;DHT22;51029;51.058;13.826;2023-05-10T06:42:53;14.80;99.90
64620;DHT22;51029;51.058;13.826;2023-05-10T06:45:18;14.90;99.90
64620;DHT22;51029;51.058;13.826;2023-05-10T06:47:44;15.00;99.90
64620;DHT22;51029;51.058;13.826;2023-05-10T06:50:10;15.20;99.90
64620;DHT22;51029;51.058;13.826;2023-05-10T06:52:39;15.20;99.90
64620;DHT22;51029;51.058;13.826;2023-05-10T06:55:05;15.20;99.90
64620;DHT22;51029;51.058;13.826;2023-05-10T06:57:31;15.30;99.90
64620;DHT22;51029;51.058;13.826;2023-05-10T06:59:58;15.50;99.90
64620;DHT22;51029;51.058;13.826;2023-05-10T07:02:24;15.40;99.90
64620;DHT22;51029;51.058;13.826;2023-05-10T07:04:49;15.70;99.90
64620;DHT22;51029;51.058;13.826;2023-05-10T07:07:17;15.60;99.90
64620;DHT22;51029;51.058;13.826;2023-05-10T07:09:42;15.60;99.90
64620;DHT22;51029;51.058;13.826;2023-05-10T07:12:08;15.80;99.90
64620;DHT22;51029;51.058;13.826;2023-05-10T07:14:33;15.90;99.90
64620;DHT22;51029;51.058;13.826;2023-05-10T07:16:58;16.00;99.90
64620;DHT22;51029;51.058;13.826;2023-05-10T07:19:24;16.10;99.90
64620;DHT22;51029;51.058;13.826;2023-05-10T07:21:50;16.20;99.90
64620;DHT22;51029;51.058;13.826;2023-05-10T07:24:16;16.40;99.90
64620;DHT22;51029;51.058;13.826;2023-05-10T07:26:41;16.30;99.60
64620;DHT22;51029;51.058;13.826;2023-05-10T07:29:07;16.40;99.70
64620;DHT22;51029;51.058;13.826;2023-05-10T07:31:32;16.60;99.40
64620;DHT22;51029;51.058;13.826;2023-05-10T07:33:58;16.60;98.20
64620;DHT22;51029;51.058;13.826;2023-05-10T07:36:23;16.60;99.50
64620;DHT22;51029;51.058;13.826;2023-05-10T07:38:49;16.80;99.10
64620;DHT22;51029;51.058;13.826;2023-05-10T07:41:15;16.80;98.00
64620;DHT22;51029;51.058;13.826;2023-05-10T07:43:40;16.70;98.10
64620;DHT22;51029;51.058;13.826;2023-05-10T07:46:06;16.90;98.80
64620;DHT22;51029;51.058;13.826;2023-05-10T07:48:31;17.00;98.20
64620;DHT22;51029;51.058;13.826;2023-05-10T07:50:57;17.20;98.00
64620;DHT22;51029;51.058;13.826;2023-05-10T07:53:22;17.00;97.50
64620;DHT22;51029;51.058;13.826;2023-05-10T07:55:54;17.00;98.30
64620;DHT22;51029;51.058;13.826;2023-05-10T07:58:22;17.20;98.30
64620;DHT22;51029;51.058;13.826;2023-05-10T08:00:47;17.60;98.20
64620;DHT22;51029;51.058;13.826;2023-05-10T08:03:14;17.70;97.20
64620;DHT22;51029;51.058;13.826;2023-05-10T08:05:40;17.90;97.90
64620;DHT22;51029;51.058;13.826;2023-05-10T08:08:06;18.10;96.30
64620;DHT22;51029;51.058;13.826;2023-05-10T08:10:31;18.30;96.30
64620;DHT22;51029;51.058;13.826;2023-05-10T08:12:57;18.30;96.40
64620;DHT22;51029;51.058;13.826;2023-05-10T08:15:24;18.00;95.90
64620;DHT22;51029;51.058;13.826;2023-05-10T08:17:50;18.10;95.90
64620;DHT22;51029;51.058;13.826;2023-05-10T08:20:16;18.30;96.40
64620;DHT22;51029;51.058;13.826;2023-05-10T08:22:46;18.40;95.20
64620;DHT22;51029;51.058;13.826;2023-05-10T08:25:12;18.30;95.00
64620;DHT22;51029;51.058;13.826;2023-05-10T08:27:37;18.50;95.70
64620;DHT22;51029;51.058;13.826;2023-05-10T08:30:03;18.70;96.20
64620;DHT22;51029;51.058;13.826;2023-05-10T08:32:29;18.70;94.50
64620;DHT22;51029;51.058;13.826;2023-05-10T08:34:55;18.80;94.60
64620;DHT22;51029;51.058;13.826;2023-05-10T08:37:22;19.10;94.90
64620;DHT22;51029;51.058;13.826;2023-05-10T08:39:48;19.20;94.20
64620;DHT22;51029;51.058;13.826;2023-05-10T08:42:18;19.60;94.30
64620;DHT22;51029;51.058;13.826;2023-05-10T08:44:45;19.60;92.00
64620;DHT22;51029;51.058;13.826;2023-05-10T08:47:15;19.30;93.10
64620;DHT22;51029;51.058;13.826;2023-05-10T08:49:41;19.30;92.80
64620;DHT22;51029;51.058;13.826;2023-05-10T08:52:08;19.50;93.40
64620;DHT22;51029;51.058;13.826;2023-05-10T08:54:36;19.50;92.60
64620;DHT22;51029;51.058;13.826;2023-05-10T08:57:03;19.70;93.30
64620;DHT22;51029;51.058;13.826;2023-05-10T08:59:28;19.80;92.00
64620;DHT22;51029;51.058;13.826;2023-05-10T09:01:57;19.80;92.10
64620;DHT22;51029;51.058;13.826;2023-05-10T09:04:23;20.20;91.60
64620;DHT22;51029;51.058;13.826;2023-05-10T09:06:48;20.30;91.30
64620;DHT22;51029;51.058;13.826;2023-05-10T09:09:14;20.70;91.00
64620;DHT22;51029;51.058;13.826;2023-05-10T09:11:41;21.20;90.20
64620;DHT22;51029;51.058;13.826;2023-05-10T09:14:07;21.20;88.00
64620;DHT22;51029;51.058;13.826;2023-05-10T09:16:34;21.20;87.80
64620;DHT22;51029;51.058;13.826;2023-05-10T09:19:00;21.10;87.90
64620;DHT22;51029;51.058;13.826;2023-05-10T09:21:25;21.60;87.50
64620;DHT22;51029;51.058;13.826;2023-05-10T09:23:51;22.00;83.40
64620;DHT22;51029;51.058;13.826;2023-05-10T09:26:22;22.20;83.60
64620;DHT22;51029;51.058;13.826;2023-05-10T09:28:51;22.50;82.10
64620;DHT22;51029;51.058;13.826;2023-05-10T09:31:18;23.00;78.10
64620;DHT22;51029;51.058;13.826;2023-05-10T09:33:44;23.00;78.60
64620;DHT22;51029;51.058;13.826;2023-05-10T09:36:11;23.20;74.70
64620;DHT22;51029;51.058;13.826;2023-05-10T09:38:51;23.30;76.40
64620;DHT22;51029;51.058;13.826;2023-05-10T09:41:23;24.10;72.30
64620;DHT22;51029;51.058;13.826;2023-05-10T09:43:50;24.10;68.60
64620;DHT22;51029;51.058;13.826;2023-05-10T09:46:20;24.80;68.30
64620;DHT22;51029;51.058;13.826;2023-05-10T09:48:47;25.20;64.00
64620;DHT22;51029;51.058;13.826;2023-05-10T09:51:39;25.10;63.70
64620;DHT22;51029;51.058;13.826;2023-05-10T09:54:11;25.90;61.70
64620;DHT22;51029;51.058;13.826;2023-05-10T09:56:37;26.20;57.70
64620;DHT22;51029;51.058;13.826;2023-05-10T09:59:06;26.60;58.60
64620;DHT22;51029;51.058;13.826;2023-05-10T10:01:32;26.00;57.50
64620;DHT22;51029;51.058;13.826;2023-05-10T10:04:06;27.20;57.40
64620;DHT22;51029;51.058;13.826;2023-05-10T10:06:36;27.60;53.60
64620;DHT22;51029;51.058;13.826;2023-05-10T10:09:02;28.90;51.90
64620;DHT22;51029;51.058;13.826;2023-05-10T10:11:28;29.10;48.50
64620;DHT22;51029;51.058;13.826;2023-05-10T10:13:54;29.60;47.10
64620;DHT22;51029;51.058;13.826;2023-05-10T10:16:20;30.90;45.20
64620;DHT22;51029;51.058;13.826;2023-05-10T10:18:47;31.20;41.90
64620;DHT22;51029;51.058;13.826;2023-05-10T10:21:14;30.60;41.70
64620;DHT22;51029;51.058;13.826;2023-05-10T10:23:40;30.60;41.10
64620;DHT22;51029;51.058;13.826;2023-05-10T10:26:06;32.50;41.60
64620;DHT22;51029;51.058;13.826;2023-05-10T10:28:39;33.10;37.30
64620;DHT22;51029;51.058;13.826;2023-05-10T10:31:24;34.50;35.80
64620;DHT22;51029;51.058;13.826;2023-05-10T10:36:23;36.50;31.80
64620;DHT22;51029;51.058;13.826;2023-05-10T10:41:37;36.00;30.50
64620;DHT22;51029;51.058;13.826;2023-05-10T10:47:07;37.90;29.20
64620;DHT22;51029;51.058;13.826;2023-05-10T10:52:26;38.30;27.80
64620;DHT22;51029;51.058;13.826;2023-05-10T10:55:04;38.30;27.50
64620;DHT22;51029;51.058;13.826;2023-05-10T10:57:44;37.60;28.10
64620;DHT22;51029;51.058;13.826;2023-05-10T11:02:53;36.90;28.00
64620;DHT22;51029;51.058;13.826;2023-05-10T11:05:35;36.80;28.60
64620;DHT22;51029;51.058;13.826;2023-05-10T11:10:39;36.40;29.00
64620;DHT22;51029;51.058;13.826;2023-05-10T11:13:07;38.60;28.20
64620;DHT22;51029;51.058;13.826;2023-05-10T11:15:39;39.50;26.70
64620;DHT22;51029;51.058;13.826;2023-05-10T11:18:23;40.30;26.60
64620;DHT22;51029;51.058;13.826;2023-05-10T11:20:55;39.80;25.00
64620;DHT22;51029;51.058;13.826;2023-05-10T11:23:21;38.90;25.10
64620;DHT22;51029;51.058;13.826;2023-05-10T11:25:48;38.60;25.10
64620;DHT22;51029;51.058;13.826;2023-05-10T11:28:16;40.30;25.50
64620;DHT22;51029;51.058;13.826;2023-05-10T11:30:44;40.60;24.00
64620;DHT22;51029;51.058;13.826;2023-05-10T11:33:14;40.70;24.10
64620;DHT22;51029;51.058;13.826;2023-05-10T11:35:40;41.50;23.80
64620;DHT22;51029;51.058;13.826;2023-05-10T11:38:07;41.70;24.40
64620;DHT22;51029;51.058;13.826;2023-05-10T11:40:34;43.60;22.90
64620;DHT22;51029;51.058;13.826;2023-05-10T11:43:00;45.00;22.00
64620;DHT22;51029;51.058;13.826;2023-05-10T11:45:25;44.50;20.50
64620;DHT22;51029;51.058;13.826;2023-05-10T11:47:51;44.40;21.30
64620;DHT22;51029;51.058;13.826;2023-05-10T11:50:17;45.50;21.30
64620;DHT22;51029;51.058;13.826;2023-05-10T11:52:43;46.10;20.20
64620;DHT22;51029;51.058;13.826;2023-05-10T11:55:09;46.30;20.00
64620;DHT22;51029;51.058;13.826;2023-05-10T11:57:35;45.90;20.00
64620;DHT22;51029;51.058;13.826;2023-05-10T12:00:03;44.80;19.70
64620;DHT22;51029;51.058;13.826;2023-05-10T12:02:29;43.90;20.30
64620;DHT22;51029;51.058;13.826;2023-05-10T12:04:55;40.80;22.30
64620;DHT22;51029;51.058;13.826;2023-05-10T12:07:21;41.30;22.50
64620;DHT22;51029;51.058;13.826;2023-05-10T12:10:26;42.70;21.20
64620;DHT22;51029;51.058;13.826;2023-05-10T12:12:52;43.40;21.00
64620;DHT22;51029;51.058;13.826;2023-05-10T12:15:23;44.50;20.50
64620;DHT22;51029;51.058;13.826;2023-05-10T12:17:49;45.60;20.20
64620;DHT22;51029;51.058;13.826;2023-05-10T12:20:22;45.50;19.60
64620;DHT22;51029;51.058;13.826;2023-05-10T12:22:54;46.70;19.80
64620;DHT22;51029;51.058;13.826;2023-05-10T12:25:21;47.90;19.00
64620;DHT22;51029;51.058;13.826;2023-05-10T12:27:57;47.90;19.00
64620;DHT22;51029;51.058;13.826;2023-05-10T12:30:34;46.60;18.50
64620;DHT22;51029;51.058;13.826;2023-05-10T12:33:07;46.00;18.80
64620;DHT22;51029;51.058;13.826;2023-05-10T12:35:38;43.40;19.30
64620;DHT22;51029;51.058;13.826;2023-05-10T12:40:58;43.00;19.90
64620;DHT22;51029;51.058;13.826;2023-05-10T12:43:24;44.60;19.90
64620;DHT22;51029;51.058;13.826;2023-05-10T12:45:50;44.40;18.90
64620;DHT22;51029;51.058;13.826;2023-05-10T12:48:15;43.00;20.20
64620;DHT22;51029;51.058;13.826;2023-05-10T12:50:41;44.80;19.20
64620;DHT22;51029;51.058;13.826;2023-05-10T12:53:07;45.10;18.70
64620;DHT22;51029;51.058;13.826;2023-05-10T12:55:32;44.70;18.90
64620;DHT22;51029;51.058;13.826;2023-05-10T12:57:57;44.40;19.40
64620;DHT22;51029;51.058;13.826;2023-05-10T13:00:23;44.00;19.30
64620;DHT22;51029;51.058;13.826;2023-05-10T13:02:49;43.60;19.40
64620;DHT22;51029;51.058;13.826;2023-05-10T13:05:14;41.50;19.90
64620;DHT22;51029;51.058;13.826;2023-05-10T13:07:40;41.00;20.60
64620;DHT22;51029;51.058;13.826;2023-05-10T13:10:06;40.10;20.60
64620;DHT22;51029;51.058;13.826;2023-05-10T13:12:32;38.90;21.30
64620;DHT22;51029;51.058;13.826;2023-05-10T13:14:57;38.70;22.20
64620;DHT22;51029;51.058;13.826;2023-05-10T13:17:24;39.30;21.60
64620;DHT22;51029;51.058;13.826;2023-05-10T13:19:50;39.70;21.80
64620;DHT22;51029;51.058;13.826;2023-05-10T13:22:15;39.60;21.90
64620;DHT22;51029;51.058;13.826;2023-05-10T13:24:41;39.40;22.50
64620;DHT22;51029;51.058;13.826;2023-05-10T13:27:06;39.60;22.40
64620;DHT22;51029;51.058;13.826;2023-05-10T13:29:32;39.90;22.20
64620;DHT22;51029;51.058;13.826;2023-05-10T13:31:58;40.10;22.00
64620;DHT22;51029;51.058;13.826;2023-05-10T13:34:23;39.20;22.10
64620;DHT22;51029;51.058;13.826;2023-05-10T13:36:49;39.50;22.60
64620;DHT22;51029;51.058;13.826;2023-05-10T13:39:15;39.40;22.20
64620;DHT22;51029;51.058;13.826;2023-05-10T13:41:40;39.70;22.10
64620;DHT22;51029;51.058;13.826;2023-05-10T13:44:06;38.30;22.70
64620;DHT22;51029;51.058;13.826;2023-05-10T13:46:32;37.70;23.80
64620;DHT22;51029;51.058;13.826;2023-05-10T13:48:57;36.30;24.00
64620;DHT22;51029;51.058;13.826;2023-05-10T13:51:23;35.20;24.80
64620;DHT22;51029;51.058;13.826;2023-05-10T13:53:48;34.60;25.50
64620;DHT22;51029;51.058;13.826;2023-05-10T13:56:14;34.90;25.90
64620;DHT22;51029;51.058;13.826;2023-05-10T13:58:41;34.40;25.80
64620;DHT22;51029;51.058;13.826;2023-05-10T14:01:06;34.40;26.00
64620;DHT22;51029;51.058;13.826;2023-05-10T14:03:32;34.00;27.00
64620;DHT22;51029;51.058;13.826;2023-05-10T14:05:57;34.50;26.80
64620;DHT22;51029;51.058;13.826;2023-05-10T14:08:23;34.10;26.70
64620;DHT22;51029;51.058;13.826;2023-05-10T14:10:49;34.40;27.40
64620;DHT22;51029;51.058;13.826;2023-05-10T14:13:15;35.50;26.40
64620;DHT22;51029;51.058;13.826;2023-05-10T14:15:41;35.30;26.40
64620;DHT22;51029;51.058;13.826;2023-05-10T14:18:07;35.20;26.30
64620;DHT22;51029;51.058;13.826;2023-05-10T14:20:32;35.40;26.10
64620;DHT22;51029;51.058;13.826;2023-05-10T14:22:59;35.80;25.70
64620;DHT22;51029;51.058;13.826;2023-05-10T14:25:25;36.00;25.30
64620;DHT22;51029;51.058;13.826;2023-05-10T14:27:51;35.30;25.70
64620;DHT22;51029;51.058;13.826;2023-05-10T14:30:16;34.80;26.50
64620;DHT22;51029;51.058;13.826;2023-05-10T14:32:42;34.20;26.50
64620;DHT22;51029;51.058;13.826;2023-05-10T14:35:07;32.80;26.90
64620;DHT22;51029;51.058;13.826;2023-05-10T14:37:34;30.90;28.70
64620;DHT22;51029;51.058;13.826;2023-05-10T14:39:59;29.70;30.00
64620;DHT22;51029;51.058;13.826;2023-05-10T14:42:25;28.60;32.30
64620;DHT22;51029;51.058;13.826;2023-05-10T14:44:50;28.00;34.10
64620;DHT22;51029;51.058;13.826;2023-05-10T14:47:16;27.30;35.00
64620;DHT22;51029;51.058;13.826;2023-05-10T14:49:42;26.90;36.10
64620;DHT22;51029;51.058;13.826;2023-05-10T14:52:07;26.80;37.60
64620;DHT22;51029;51.058;13.826;2023-05-10T14:54:33;26.40;37.80
64620;DHT22;51029;51.058;13.826;2023-05-10T14:56:59;26.20;39.50
64620;DHT22;51029;51.058;13.826;2023-05-10T14:59:25;26.20;39.80
64620;DHT22;51029;51.058;13.826;2023-05-10T15:01:51;26.10;40.20
64620;DHT22;51029;51.058;13.826;2023-05-10T15:04:16;26.10;40.60
64620;DHT22;51029;51.058;13.826;2023-05-10T15:06:42;25.70;40.90
64620;DHT22;51029;51.058;13.826;2023-05-10T15:09:07;25.60;41.80
64620;DHT22;51029;51.058;13.826;2023-05-10T15:11:34;25.30;42.30
64620;DHT22;51029;51.058;13.826;2023-05-10T15:13:59;24.90;43.00
64620;DHT22;51029;51.058;13.826;2023-05-10T15:16:25;24.70;43.70
64620;DHT22;51029;51.058;13.826;2023-05-10T15:18:50;24.50;46.00
64620;DHT22;51029;51.058;13.826;2023-05-10T15:21:16;24.40;46.10
64620;DHT22;51029;51.058;13.826;2023-05-10T15:23:41;24.20;46.40
64620;DHT22;51029;51.058;13.826;2023-05-10T15:26:07;23.80;53.60
64620;DHT22;51029;51.058;13.826;2023-05-10T15:28:33;23.30;59.30
64620;DHT22;51029;51.058;13.826;2023-05-10T15:30:58;23.00;65.30
64620;DHT22;51029;51.058;13.826;2023-05-10T15:33:24;22.80;69.60
64620;DHT22;51029;51.058;13.826;2023-05-10T15:35:50;22.30;73.90
64620;DHT22;51029;51.058;13.826;2023-05-10T15:38:15;22.00;79.10
64620;DHT22;51029;51.058;13.826;2023-05-10T15:40:41;21.80;82.60
64620;DHT22;51029;51.058;13.826;2023-05-10T15:43:06;21.70;85.30
64620;DHT22;51029;51.058;13.826;2023-05-10T15:45:32;21.60;88.50
64620;DHT22;51029;51.058;13.826;2023-05-10T15:47:58;21.60;89.30
64620;DHT22;51029;51.058;13.826;2023-05-10T15:50:24;21.70;88.80